Time;durP1;ratioP1;P1;durP2;ratioP2;P2;SDS_P1;SDS_P2;PMS_P1;PMS_P2;Temp;Humidity;BMP_temperature;BMP_pressure;BME280_temperature;BME280_humidity;BME280_pressure;Samples;Min_cycle;Max_cycle;Signal;HPM_P1;HPM_P2
2021/10/23 00:01:46;;;;;;;;;;;20.50;51.50;;;;;;494993;239;1350;-47
2021/10/23 00:03:47;;;;;;;;;;;20.60;51.50;;;;;;495266;239;1066;-47
2021/10/23 00:05:49;;;;;;;;;;;20.60;51.40;;;;;;495309;239;1039;-46
2021/10/23 00:07:50;;;;;;;;;;;20.60;51.50;;;;;;494870;239;1253;-47
2021/10/23 00:09:51;;;;;;;;;;;20.70;51.40;;;;;;495099;239;2182;-47
2021/10/23 00:11:52;;;;;;;;;;;20.60;51.40;;;;;;495167;239;1185;-47
2021/10/23 00:13:54;;;;;;;;;;;20.60;51.30;;;;;;494829;239;1626;-46
2021/10/23 00:15:55;;;;;;;;;;;20.60;51.40;;;;;;495030;239;1156;-47
2021/10/23 00:17:56;;;;;;;;;;;20.60;51.40;;;;;;494753;239;1228;-47
2021/10/23 00:20:00;;;;;;;;;;;20.60;51.40;;;;;;494843;239;1049;-47
2021/10/23 00:21:59;;;;;;;;;;;20.60;51.40;;;;;;494623;241;1709;-47
2021/10/23 00:24:01;;;;;;;;;;;20.60;51.40;;;;;;495266;239;1029;-47
2021/10/23 00:26:02;;;;;;;;;;;20.60;51.40;;;;;;494785;239;1295;-47
2021/10/23 00:28:03;;;;;;;;;;;20.60;51.40;;;;;;494773;239;1049;-47
2021/10/23 00:30:05;;;;;;;;;;;20.60;51.40;;;;;;495059;239;2115;-47
2021/10/23 00:32:06;;;;;;;;;;;20.60;51.40;;;;;;495020;239;1635;-47
2021/10/23 00:34:07;;;;;;;;;;;20.60;51.40;;;;;;495074;239;1117;-47
2021/10/23 00:36:09;;;;;;;;;;;20.60;51.50;;;;;;495111;239;1237;-47
2021/10/23 00:38:10;;;;;;;;;;;20.60;51.40;;;;;;494736;239;1192;-47
2021/10/23 00:40:11;;;;;;;;;;;20.60;51.50;;;;;;495267;239;1063;-47
2021/10/23 00:42:12;;;;;;;;;;;20.60;51.50;;;;;;494700;239;1246;-47
2021/10/23 00:44:14;;;;;;;;;;;20.60;51.40;;;;;;494814;239;1060;-47
2021/10/23 00:46:15;;;;;;;;;;;20.60;51.40;;;;;;495077;239;1133;-47
2021/10/23 00:48:16;;;;;;;;;;;20.60;51.40;;;;;;494885;239;1179;-47
2021/10/23 00:50:18;;;;;;;;;;;20.60;51.40;;;;;;495069;239;2190;-47
2021/10/23 00:52:19;;;;;;;;;;;20.60;51.50;;;;;;495236;239;1283;-47
2021/10/23 00:54:20;;;;;;;;;;;20.60;51.40;;;;;;495253;239;1097;-47
2021/10/23 00:56:22;;;;;;;;;;;20.60;51.40;;;;;;494785;239;1291;-47
2021/10/23 00:58:23;;;;;;;;;;;20.60;51.40;;;;;;494813;239;1341;-46
2021/10/23 01:00:24;;;;;;;;;;;20.60;51.30;;;;;;494757;239;1046;-47
2021/10/23 01:02:26;;;;;;;;;;;20.60;51.50;;;;;;494993;239;1692;-46
2021/10/23 01:04:27;;;;;;;;;;;20.60;51.40;;;;;;495232;239;1330;-47
2021/10/23 01:06:28;;;;;;;;;;;20.60;51.40;;;;;;495039;239;1327;-47
2021/10/23 01:08:30;;;;;;;;;;;20.60;51.30;;;;;;495228;239;1238;-47
2021/10/23 01:10:31;;;;;;;;;;;20.60;51.30;;;;;;495092;239;2194;-47
2021/10/23 01:12:32;;;;;;;;;;;20.60;51.40;;;;;;495073;239;1030;-47
2021/10/23 01:14:34;;;;;;;;;;;20.60;51.30;;;;;;495099;239;1107;-47
2021/10/23 01:16:35;;;;;;;;;;;20.60;51.20;;;;;;494923;239;1176;-47
2021/10/23 01:18:36;;;;;;;;;;;20.70;51.20;;;;;;494801;239;1127;-47
2021/10/23 01:20:38;;;;;;;;;;;20.60;51.20;;;;;;495286;239;1406;-47
2021/10/23 01:22:39;;;;;;;;;;;20.60;51.30;;;;;;494828;239;1137;-47
2021/10/23 01:24:40;;;;;;;;;;;20.60;51.40;;;;;;495318;239;995;-47
2021/10/23 01:26:41;;;;;;;;;;;20.60;51.40;;;;;;495194;239;1658;-47
2021/10/23 01:28:43;;;;;;;;;;;20.60;51.30;;;;;;494959;239;1049;-47
2021/10/23 01:30:44;;;;;;;;;;;20.60;51.20;;;;;;495010;239;2177;-47
2021/10/23 01:32:45;;;;;;;;;;;20.60;51.30;;;;;;495000;239;1159;-47
2021/10/23 01:34:47;;;;;;;;;;;20.60;51.30;;;;;;494793;239;1059;-46
2021/10/23 01:36:48;;;;;;;;;;;20.60;51.30;;;;;;494758;239;1196;-47
2021/10/23 01:38:49;;;;;;;;;;;20.60;51.20;;;;;;494771;239;1103;-47
2021/10/23 01:40:51;;;;;;;;;;;20.60;51.30;;;;;;494675;239;1480;-47
2021/10/23 01:42:52;;;;;;;;;;;20.60;51.20;;;;;;494787;239;1221;-47
2021/10/23 01:44:53;;;;;;;;;;;20.60;51.20;;;;;;495205;239;1036;-47
2021/10/23 01:46:55;;;;;;;;;;;20.70;51.30;;;;;;494925;239;1196;-47
2021/10/23 01:48:56;;;;;;;;;;;20.60;51.20;;;;;;494847;239;1173;-47
2021/10/23 01:50:57;;;;;;;;;;;20.60;51.30;;;;;;495209;239;2170;-47
2021/10/23 01:52:59;;;;;;;;;;;20.60;51.30;;;;;;495221;239;1086;-47
2021/10/23 01:55:00;;;;;;;;;;;20.60;51.20;;;;;;494766;239;1017;-47
2021/10/23 01:57:01;;;;;;;;;;;20.60;51.20;;;;;;494676;239;1208;-47
2021/10/23 01:59:02;;;;;;;;;;;20.60;51.20;;;;;;495221;239;1051;-47
2021/10/23 02:01:04;;;;;;;;;;;20.60;51.30;;;;;;494919;239;1190;-47
2021/10/23 02:03:06;;;;;;;;;;;20.60;51.30;;;;;;495078;239;1199;-47
2021/10/23 02:05:07;;;;;;;;;;;20.60;51.30;;;;;;494841;239;1069;-47
2021/10/23 02:07:08;;;;;;;;;;;20.60;51.20;;;;;;494713;239;1257;-47
2021/10/23 02:09:10;;;;;;;;;;;20.60;51.20;;;;;;494827;239;1192;-47
2021/10/23 02:11:11;;;;;;;;;;;20.60;51.10;;;;;;495136;239;2111;-47
2021/10/23 02:13:12;;;;;;;;;;;20.70;51.20;;;;;;495254;239;1049;-47
2021/10/23 02:15:13;;;;;;;;;;;20.60;51.20;;;;;;494811;239;1356;-47
2021/10/23 02:17:15;;;;;;;;;;;20.60;51.20;;;;;;494828;239;1175;-47
2021/10/23 02:19:16;;;;;;;;;;;20.60;51.30;;;;;;494779;239;1187;-47
2021/10/23 02:21:17;;;;;;;;;;;20.60;51.30;;;;;;495012;239;1187;-47
2021/10/23 02:23:19;;;;;;;;;;;20.70;51.20;;;;;;495017;239;1193;-47
2021/10/23 02:25:20;;;;;;;;;;;20.70;51.20;;;;;;495300;239;1030;-47
2021/10/23 02:27:21;;;;;;;;;;;20.60;51.20;;;;;;494800;239;1232;-47
2021/10/23 02:29:23;;;;;;;;;;;20.60;51.20;;;;;;494825;239;1187;-47
2021/10/23 02:31:24;;;;;;;;;;;20.60;51.20;;;;;;495027;239;2111;-47
2021/10/23 02:33:25;;;;;;;;;;;20.60;51.20;;;;;;494782;239;1321;-47
2021/10/23 02:35:27;;;;;;;;;;;20.60;51.10;;;;;;494928;239;1293;-47
2021/10/23 02:37:28;;;;;;;;;;;20.60;51.10;;;;;;495005;239;1256;-47
2021/10/23 02:39:29;;;;;;;;;;;20.70;51.10;;;;;;495236;239;1079;-47
2021/10/23 02:41:31;;;;;;;;;;;20.60;51.10;;;;;;494703;239;1215;-47
2021/10/23 02:43:32;;;;;;;;;;;20.60;51.20;;;;;;495215;239;1231;-47
2021/10/23 02:45:33;;;;;;;;;;;20.70;51.10;;;;;;495236;239;1562;-47
2021/10/23 02:47:35;;;;;;;;;;;20.70;51.10;;;;;;495195;239;1219;-47
2021/10/23 02:49:37;;;;;;;;;;;20.60;51.20;;;;;;494927;239;1194;-47
2021/10/23 02:51:37;;;;;;;;;;;20.60;51.10;;;;;;494693;241;2461;-47
2021/10/23 02:53:39;;;;;;;;;;;20.60;51.20;;;;;;494951;239;1219;-46
2021/10/23 02:55:40;;;;;;;;;;;20.60;51.20;;;;;;495285;239;1081;-47
2021/10/23 02:57:41;;;;;;;;;;;20.60;51.20;;;;;;494853;239;1315;-47
2021/10/23 02:59:43;;;;;;;;;;;20.60;51.20;;;;;;495087;239;1060;-47
2021/10/23 03:01:44;;;;;;;;;;;20.60;51.20;;;;;;494674;239;1925;-47
2021/10/23 03:03:45;;;;;;;;;;;20.60;51.20;;;;;;495035;239;1212;-46
2021/10/23 03:05:47;;;;;;;;;;;20.60;51.10;;;;;;495274;239;1100;-47
2021/10/23 03:07:48;;;;;;;;;;;20.60;51.10;;;;;;494843;239;1228;-47
2021/10/23 03:09:50;;;;;;;;;;;20.70;51.10;;;;;;494823;239;1041;-47
2021/10/23 03:11:51;;;;;;;;;;;20.70;51.10;;;;;;495196;239;2186;-47
2021/10/23 03:13:52;;;;;;;;;;;20.60;51.10;;;;;;495254;239;1049;-47
2021/10/23 03:15:55;;;;;;;;;;;20.60;51.10;;;;;;495278;239;1350;-47
2021/10/23 03:17:55;;;;;;;;;;;20.60;51.10;;;;;;495162;241;1371;-47
2021/10/23 03:19:57;;;;;;;;;;;20.70;51.10;;;;;;494915;239;1178;-46
2021/10/23 03:21:58;;;;;;;;;;;20.60;51.10;;;;;;494822;239;1219;-47
2021/10/23 03:24:00;;;;;;;;;;;20.60;51.10;;;;;;494757;239;1100;-47
2021/10/23 03:26:01;;;;;;;;;;;20.60;51.10;;;;;;494929;239;1089;-47
2021/10/23 03:28:02;;;;;;;;;;;20.60;51.10;;;;;;495286;239;1035;-47
2021/10/23 03:30:04;;;;;;;;;;;20.60;51.10;;;;;;494767;239;1226;-47
2021/10/23 03:32:05;;;;;;;;;;;20.60;51.10;;;;;;495182;239;2130;-47
2021/10/23 03:34:06;;;;;;;;;;;20.60;51.10;;;;;;494801;239;1159;-47
2021/10/23 03:36:08;;;;;;;;;;;20.60;51.10;;;;;;494828;239;1229;-47
2021/10/23 03:38:09;;;;;;;;;;;20.60;51.00;;;;;;495289;239;1206;-47
2021/10/23 03:40:11;;;;;;;;;;;20.70;51.10;;;;;;494920;239;1210;-47
2021/10/23 03:42:12;;;;;;;;;;;20.60;51.10;;;;;;494741;239;1151;-47
2021/10/23 03:44:13;;;;;;;;;;;20.60;51.00;;;;;;494956;239;1086;-47
2021/10/23 03:46:14;;;;;;;;;;;20.60;51.00;;;;;;495247;239;1238;-47
2021/10/23 03:48:16;;;;;;;;;;;20.60;51.00;;;;;;495134;239;1173;-47
2021/10/23 03:50:17;;;;;;;;;;;20.70;51.10;;;;;;494969;239;1225;-47
2021/10/23 03:52:18;;;;;;;;;;;20.70;51.00;;;;;;495013;239;2181;-47
2021/10/23 03:54:20;;;;;;;;;;;20.70;51.00;;;;;;495289;239;1029;-47
2021/10/23 03:56:21;;;;;;;;;;;20.70;51.00;;;;;;495233;239;1191;-47
2021/10/23 03:58:22;;;;;;;;;;;20.70;51.10;;;;;;495259;239;1218;-47
2021/10/23 04:00:23;;;;;;;;;;;20.70;51.00;;;;;;495197;239;998;-47
2021/10/23 04:02:25;;;;;;;;;;;20.60;51.00;;;;;;494737;239;1226;-47
2021/10/23 04:04:26;;;;;;;;;;;20.70;51.00;;;;;;494759;239;1179;-47
2021/10/23 04:06:27;;;;;;;;;;;20.70;51.00;;;;;;495007;239;1306;-47
2021/10/23 04:08:29;;;;;;;;;;;20.60;51.00;;;;;;494761;239;1217;-47
2021/10/23 04:10:30;;;;;;;;;;;20.70;51.00;;;;;;495263;239;1744;-47
2021/10/23 04:12:32;;;;;;;;;;;20.70;51.00;;;;;;494796;239;2124;-47
2021/10/23 04:14:33;;;;;;;;;;;20.70;50.90;;;;;;494944;239;1082;-47
2021/10/23 04:16:34;;;;;;;;;;;20.70;50.90;;;;;;494983;239;1323;-47
2021/10/23 04:18:36;;;;;;;;;;;20.70;51.00;;;;;;494802;239;1140;-46
2021/10/23 04:20:37;;;;;;;;;;;20.70;51.00;;;;;;494957;239;1159;-47
2021/10/23 04:22:39;;;;;;;;;;;20.70;51.00;;;;;;495271;239;1661;-47
2021/10/23 04:24:40;;;;;;;;;;;20.70;51.00;;;;;;495308;239;990;-46
2021/10/23 04:26:41;;;;;;;;;;;20.70;51.00;;;;;;495093;239;1225;-46
2021/10/23 04:28:43;;;;;;;;;;;20.70;51.00;;;;;;495227;239;1150;-47
2021/10/23 04:30:44;;;;;;;;;;;20.70;50.90;;;;;;495150;239;1114;-46
2021/10/23 04:32:45;;;;;;;;;;;20.70;51.00;;;;;;494731;239;2186;-47
2021/10/23 04:34:47;;;;;;;;;;;20.70;51.00;;;;;;494788;239;1175;-46
2021/10/23 04:36:48;;;;;;;;;;;20.70;50.90;;;;;;495223;239;1208;-46
2021/10/23 04:38:49;;;;;;;;;;;20.70;51.00;;;;;;495279;239;1045;-47
2021/10/23 04:40:51;;;;;;;;;;;20.70;51.00;;;;;;494806;239;1213;-47
2021/10/23 04:42:52;;;;;;;;;;;20.60;51.00;;;;;;495258;239;1179;-47
2021/10/23 04:44:53;;;;;;;;;;;20.60;50.90;;;;;;494765;239;1084;-47
2021/10/23 04:46:55;;;;;;;;;;;20.70;51.00;;;;;;495180;239;1168;-47
2021/10/23 04:48:56;;;;;;;;;;;20.70;51.00;;;;;;495072;239;1078;-47
2021/10/23 04:50:57;;;;;;;;;;;20.60;51.00;;;;;;494892;239;1369;-47
2021/10/23 04:52:59;;;;;;;;;;;20.60;51.00;;;;;;495294;239;2119;-47
2021/10/23 04:55:00;;;;;;;;;;;20.60;50.90;;;;;;494833;239;1072;-47
2021/10/23 04:57:01;;;;;;;;;;;20.60;50.90;;;;;;494883;239;1272;-47
2021/10/23 04:59:03;;;;;;;;;;;20.70;50.90;;;;;;494842;239;1047;-47
2021/10/23 05:01:04;;;;;;;;;;;20.60;50.90;;;;;;495002;239;1415;-47
2021/10/23 05:03:05;;;;;;;;;;;20.70;51.00;;;;;;495098;239;1531;-47
2021/10/23 05:05:06;;;;;;;;;;;20.70;51.00;;;;;;494767;238;1262;-47
2021/10/23 05:07:08;;;;;;;;;;;20.60;51.00;;;;;;495222;239;1167;-46
2021/10/23 05:09:09;;;;;;;;;;;20.70;51.00;;;;;;495257;239;1159;-47
2021/10/23 05:11:10;;;;;;;;;;;20.60;50.90;;;;;;494968;239;1169;-47
2021/10/23 05:13:13;;;;;;;;;;;20.70;50.80;;;;;;495013;239;2186;-47
2021/10/23 05:15:13;;;;;;;;;;;20.70;50.90;;;;;;494745;241;1990;-47
2021/10/23 05:17:14;;;;;;;;;;;20.70;50.90;;;;;;495071;239;1241;-46
2021/10/23 05:19:16;;;;;;;;;;;20.70;50.90;;;;;;494836;239;1050;-47
2021/10/23 05:21:17;;;;;;;;;;;20.70;51.00;;;;;;494696;239;1254;-47
2021/10/23 05:23:19;;;;;;;;;;;20.70;51.00;;;;;;494829;239;1279;-47
2021/10/23 05:25:20;;;;;;;;;;;20.70;50.90;;;;;;495217;241;2197;-47
2021/10/23 05:27:21;;;;;;;;;;;20.70;50.90;;;;;;494807;239;1271;-47
2021/10/23 05:29:23;;;;;;;;;;;20.70;50.90;;;;;;495107;239;1223;-47
2021/10/23 05:31:24;;;;;;;;;;;20.70;50.90;;;;;;495051;239;2179;-47
2021/10/23 05:33:25;;;;;;;;;;;20.70;50.90;;;;;;495169;239;969;-47
2021/10/23 05:35:26;;;;;;;;;;;20.70;51.00;;;;;;495176;237;1227;-47
2021/10/23 05:37:28;;;;;;;;;;;20.60;51.00;;;;;;494867;239;1149;-47
2021/10/23 05:39:29;;;;;;;;;;;20.60;51.00;;;;;;494792;239;1039;-47
2021/10/23 05:41:31;;;;;;;;;;;20.70;51.00;;;;;;494891;239;1192;-47
2021/10/23 05:43:32;;;;;;;;;;;20.60;50.90;;;;;;494887;239;1051;-47
2021/10/23 05:45:33;;;;;;;;;;;20.60;50.90;;;;;;495245;239;1082;-47
2021/10/23 05:47:35;;;;;;;;;;;20.60;51.00;;;;;;494905;239;1236;-47
2021/10/23 05:49:36;;;;;;;;;;;20.70;50.90;;;;;;494766;239;1050;-47
2021/10/23 05:51:37;;;;;;;;;;;20.60;50.90;;;;;;495014;239;2226;-47
2021/10/23 05:53:39;;;;;;;;;;;20.70;50.90;;;;;;494838;239;1176;-47
2021/10/23 05:55:40;;;;;;;;;;;20.60;50.90;;;;;;495260;239;1079;-47
2021/10/23 05:57:41;;;;;;;;;;;20.60;51.00;;;;;;494844;239;1219;-47
2021/10/23 05:59:45;;;;;;;;;;;20.60;50.90;;;;;;495044;239;981;-47
2021/10/23 06:01:45;;;;;;;;;;;20.60;50.80;;;;;;494983;241;2271;-47
2021/10/23 06:03:45;;;;;;;;;;;20.70;50.90;;;;;;494806;241;2068;-46
2021/10/23 06:05:47;;;;;;;;;;;20.70;50.80;;;;;;495154;239;1128;-47
2021/10/23 06:07:48;;;;;;;;;;;20.70;50.80;;;;;;494729;239;1092;-47
2021/10/23 06:09:49;;;;;;;;;;;20.60;50.80;;;;;;494774;239;1067;-47
2021/10/23 06:11:51;;;;;;;;;;;20.60;50.90;;;;;;494789;239;2190;-47
2021/10/23 06:13:55;;;;;;;;;;;20.70;50.90;;;;;;495198;239;1034;-46
2021/10/23 06:15:54;;;;;;;;;;;20.70;50.90;;;;;;494620;241;2299;-47
2021/10/23 06:17:55;;;;;;;;;;;20.60;50.90;;;;;;494800;239;1131;-47
2021/10/23 06:19:57;;;;;;;;;;;20.60;50.90;;;;;;494783;239;1062;-47
2021/10/23 06:21:58;;;;;;;;;;;20.60;50.90;;;;;;494954;239;1176;-46
2021/10/23 06:24:00;;;;;;;;;;;20.70;50.80;;;;;;495044;239;1073;-47
2021/10/23 06:26:01;;;;;;;;;;;20.70;50.80;;;;;;494828;239;953;-47
2021/10/23 06:28:02;;;;;;;;;;;20.70;50.80;;;;;;494801;239;1494;-47
2021/10/23 06:30:03;;;;;;;;;;;20.70;50.90;;;;;;494830;239;1110;-47
2021/10/23 06:32:05;;;;;;;;;;;20.70;50.90;;;;;;494877;239;2202;-47
2021/10/23 06:34:06;;;;;;;;;;;20.60;50.80;;;;;;494728;239;1044;-47
2021/10/23 06:36:08;;;;;;;;;;;20.60;50.90;;;;;;495039;239;1246;-47
2021/10/23 06:38:09;;;;;;;;;;;20.70;51.00;;;;;;494815;239;1181;-47
2021/10/23 06:40:10;;;;;;;;;;;20.60;50.90;;;;;;494763;239;1084;-47
2021/10/23 06:42:11;;;;;;;;;;;20.70;50.90;;;;;;494696;239;1503;-46
2021/10/23 06:44:13;;;;;;;;;;;20.70;50.90;;;;;;494734;239;1015;-47
2021/10/23 06:46:14;;;;;;;;;;;20.60;50.90;;;;;;494758;239;1122;-47
2021/10/23 06:48:15;;;;;;;;;;;20.70;50.90;;;;;;495261;239;1292;-47
2021/10/23 06:50:17;;;;;;;;;;;20.70;50.80;;;;;;494908;239;1035;-47
2021/10/23 06:52:18;;;;;;;;;;;20.60;50.80;;;;;;494787;239;2139;-47
2021/10/23 06:54:19;;;;;;;;;;;20.70;50.80;;;;;;495270;239;1164;-47
2021/10/23 06:56:21;;;;;;;;;;;20.70;50.70;;;;;;495184;239;1229;-47
2021/10/23 06:58:22;;;;;;;;;;;20.70;50.80;;;;;;494761;239;1077;-47
2021/10/23 07:00:23;;;;;;;;;;;20.70;50.80;;;;;;494969;239;1061;-46
2021/10/23 07:02:25;;;;;;;;;;;20.70;50.90;;;;;;494687;239;1194;-47
2021/10/23 07:04:26;;;;;;;;;;;20.70;50.80;;;;;;494779;239;1064;-47
2021/10/23 07:06:27;;;;;;;;;;;20.70;50.80;;;;;;494704;239;1158;-47
2021/10/23 07:08:29;;;;;;;;;;;20.70;50.80;;;;;;494861;239;1206;-47
2021/10/23 07:10:30;;;;;;;;;;;20.70;50.90;;;;;;495200;239;1029;-47
2021/10/23 07:12:31;;;;;;;;;;;20.60;50.90;;;;;;494724;239;2174;-47
2021/10/23 07:14:33;;;;;;;;;;;20.60;50.90;;;;;;495075;239;1058;-47
2021/10/23 07:16:34;;;;;;;;;;;20.60;50.80;;;;;;495143;239;1066;-46
2021/10/23 07:18:35;;;;;;;;;;;20.70;50.80;;;;;;494906;239;1606;-47
2021/10/23 07:20:37;;;;;;;;;;;20.70;50.80;;;;;;495070;239;1105;-47
2021/10/23 07:22:38;;;;;;;;;;;20.70;50.80;;;;;;494705;239;1254;-47
2021/10/23 07:24:39;;;;;;;;;;;20.60;50.90;;;;;;494981;239;1011;-47
2021/10/23 07:26:40;;;;;;;;;;;20.60;50.90;;;;;;494855;239;1237;-47
2021/10/23 07:28:42;;;;;;;;;;;20.60;50.90;;;;;;494735;239;1058;-47
2021/10/23 07:30:43;;;;;;;;;;;20.60;51.00;;;;;;494980;239;1095;-47
2021/10/23 07:32:44;;;;;;;;;;;20.60;50.90;;;;;;495253;239;2119;-47
2021/10/23 07:34:46;;;;;;;;;;;20.60;50.90;;;;;;495247;239;1024;-47
2021/10/23 07:36:48;;;;;;;;;;;20.60;50.90;;;;;;495199;239;1198;-47
2021/10/23 07:38:48;;;;;;;;;;;20.60;50.80;;;;;;494810;241;2251;-47
2021/10/23 07:40:50;;;;;;;;;;;20.70;50.80;;;;;;494801;239;1009;-47
2021/10/23 07:42:51;;;;;;;;;;;20.70;50.80;;;;;;494831;239;1183;-46
2021/10/23 07:44:52;;;;;;;;;;;20.70;50.80;;;;;;495208;239;1021;-47
2021/10/23 07:46:54;;;;;;;;;;;20.70;50.80;;;;;;494878;239;1373;-47
2021/10/23 07:48:55;;;;;;;;;;;20.70;50.80;;;;;;494974;239;1054;-47
2021/10/23 07:50:56;;;;;;;;;;;20.70;50.80;;;;;;494693;239;1366;-47
2021/10/23 07:53:02;;;;;;;;;;;20.70;50.80;;;;;;494715;239;2201;-47
2021/10/23 07:55:00;;;;;;;;;;;20.70;50.70;;;;;;494884;241;2119;-47
2021/10/23 07:57:01;;;;;;;;;;;20.70;50.60;;;;;;494888;239;1312;-47
2021/10/23 07:59:02;;;;;;;;;;;20.70;50.80;;;;;;494798;239;1045;-47
2021/10/23 08:01:03;;;;;;;;;;;20.70;50.80;;;;;;494690;239;1281;-47
2021/10/23 08:03:05;;;;;;;;;;;20.60;50.70;;;;;;494740;239;1168;-47
2021/10/23 08:05:06;;;;;;;;;;;20.70;50.70;;;;;;494863;239;968;-47
2021/10/23 08:07:07;;;;;;;;;;;20.70;50.70;;;;;;494635;239;1211;-47
2021/10/23 08:09:12;;;;;;;;;;;20.70;50.70;;;;;;494806;239;1293;-47
2021/10/23 08:11:13;;;;;;;;;;;20.70;50.80;;;;;;495084;239;1345;-47
2021/10/23 08:13:14;;;;;;;;;;;20.70;50.70;;;;;;495208;239;2185;-47
2021/10/23 08:15:16;;;;;;;;;;;20.70;50.70;;;;;;495260;239;1040;-47
2021/10/23 08:17:17;;;;;;;;;;;20.70;50.70;;;;;;494855;239;1343;-47
2021/10/23 08:19:18;;;;;;;;;;;20.60;50.70;;;;;;494679;239;1353;-47
2021/10/23 08:21:20;;;;;;;;;;;20.70;50.80;;;;;;495117;239;1211;-47
2021/10/23 08:23:21;;;;;;;;;;;20.60;50.80;;;;;;495062;239;1216;-47
2021/10/23 08:25:22;;;;;;;;;;;20.70;50.70;;;;;;495225;239;1471;-47
2021/10/23 08:27:23;;;;;;;;;;;20.70;50.70;;;;;;494751;239;1208;-47
2021/10/23 08:29:25;;;;;;;;;;;20.70;50.70;;;;;;495244;239;1221;-46
2021/10/23 08:31:26;;;;;;;;;;;20.70;50.70;;;;;;495211;239;1330;-47
2021/10/23 08:33:28;;;;;;;;;;;20.70;50.70;;;;;;494919;239;2206;-47
2021/10/23 08:35:29;;;;;;;;;;;20.70;50.70;;;;;;494744;239;2241;-47
2021/10/23 08:37:30;;;;;;;;;;;20.70;50.80;;;;;;494961;239;1102;-47
2021/10/23 08:39:32;;;;;;;;;;;20.60;50.80;;;;;;494835;239;1200;-47
2021/10/23 08:41:33;;;;;;;;;;;20.60;50.80;;;;;;495141;239;1377;-47
2021/10/23 08:43:34;;;;;;;;;;;20.70;50.80;;;;;;495265;239;1057;-47
2021/10/23 08:45:35;;;;;;;;;;;20.70;50.70;;;;;;494764;239;1148;-47
2021/10/23 08:47:37;;;;;;;;;;;20.60;50.70;;;;;;495252;239;1170;-47
2021/10/23 08:49:38;;;;;;;;;;;20.70;50.80;;;;;;495273;239;1080;-47
2021/10/23 08:51:39;;;;;;;;;;;20.70;50.70;;;;;;495193;239;1374;-47
2021/10/23 08:53:41;;;;;;;;;;;20.70;50.80;;;;;;495069;239;2107;-47
2021/10/23 08:55:42;;;;;;;;;;;20.70;50.70;;;;;;495251;239;1108;-47
2021/10/23 08:57:43;;;;;;;;;;;20.70;50.70;;;;;;495071;239;1095;-47
2021/10/23 08:59:45;;;;;;;;;;;20.70;50.70;;;;;;494763;239;1045;-47
2021/10/23 09:01:46;;;;;;;;;;;20.70;50.80;;;;;;494880;239;1459;-47
2021/10/23 09:03:47;;;;;;;;;;;20.70;50.80;;;;;;494779;239;2143;-47
2021/10/23 09:05:49;;;;;;;;;;;20.70;50.80;;;;;;494787;239;1010;-47
2021/10/23 09:07:50;;;;;;;;;;;20.70;50.80;;;;;;495229;239;1340;-46
2021/10/23 09:09:51;;;;;;;;;;;20.60;50.80;;;;;;494832;239;1217;-47
2021/10/23 09:11:52;;;;;;;;;;;20.70;50.70;;;;;;495017;239;1666;-47
2021/10/23 09:13:54;;;;;;;;;;;20.60;50.70;;;;;;494779;239;2187;-46
2021/10/23 09:15:55;;;;;;;;;;;20.70;50.80;;;;;;495231;239;1340;-47
2021/10/23 09:17:56;;;;;;;;;;;20.70;50.80;;;;;;495276;239;1208;-47
2021/10/23 09:19:58;;;;;;;;;;;20.60;50.70;;;;;;495273;239;1047;-47
2021/10/23 09:21:59;;;;;;;;;;;20.70;50.70;;;;;;495214;239;1161;-47
2021/10/23 09:24:01;;;;;;;;;;;20.70;50.70;;;;;;495107;239;1142;-47
2021/10/23 09:26:02;;;;;;;;;;;20.60;50.70;;;;;;494755;239;1106;-47
2021/10/23 09:28:04;;;;;;;;;;;20.60;50.80;;;;;;494840;239;1215;-47
2021/10/23 09:30:05;;;;;;;;;;;20.70;50.70;;;;;;494813;239;1067;-46
2021/10/23 09:32:06;;;;;;;;;;;20.70;50.70;;;;;;494758;239;1454;-47
2021/10/23 09:34:08;;;;;;;;;;;20.60;50.70;;;;;;494809;239;2190;-47
2021/10/23 09:36:09;;;;;;;;;;;20.60;50.70;;;;;;495176;239;1329;-46
2021/10/23 09:38:10;;;;;;;;;;;20.70;50.70;;;;;;494754;239;1187;-47
2021/10/23 09:40:12;;;;;;;;;;;20.70;50.60;;;;;;494822;239;1196;-47
2021/10/23 09:42:13;;;;;;;;;;;20.70;50.70;;;;;;495215;239;1378;-47
2021/10/23 09:44:14;;;;;;;;;;;20.70;50.70;;;;;;495151;239;1065;-47
2021/10/23 09:46:21;;;;;;;;;;;20.70;50.70;;;;;;495190;239;1502;-47
2021/10/23 09:48:17;;;;;;;;;;;20.70;50.70;;;;;;494493;241;2206;-47
2021/10/23 09:50:18;;;;;;;;;;;20.70;50.70;;;;;;495300;239;1058;-47
2021/10/23 09:52:19;;;;;;;;;;;20.70;50.60;;;;;;495142;239;1091;-47
2021/10/23 09:54:21;;;;;;;;;;;20.60;50.60;;;;;;494856;239;2183;-47
2021/10/23 09:56:22;;;;;;;;;;;20.70;50.60;;;;;;494801;239;1138;-47
2021/10/23 09:58:23;;;;;;;;;;;20.70;50.70;;;;;;494792;239;1136;-47
2021/10/23 10:00:25;;;;;;;;;;;20.60;50.60;;;;;;495101;239;1034;-47
2021/10/23 10:02:26;;;;;;;;;;;20.60;50.70;;;;;;495284;239;1228;-47
2021/10/23 10:04:27;;;;;;;;;;;20.70;50.70;;;;;;495261;239;1117;-46
2021/10/23 10:06:29;;;;;;;;;;;20.70;50.60;;;;;;495170;239;1126;-46
2021/10/23 10:08:30;;;;;;;;;;;20.70;50.50;;;;;;495223;239;1097;-47
2021/10/23 10:10:31;;;;;;;;;;;20.70;50.50;;;;;;494840;239;1258;-47
2021/10/23 10:12:33;;;;;;;;;;;20.70;50.60;;;;;;494855;239;1186;-47
2021/10/23 10:14:35;;;;;;;;;;;20.70;50.60;;;;;;494720;239;2104;-47
2021/10/23 10:16:35;;;;;;;;;;;20.70;50.70;;;;;;494698;239;1399;-46
2021/10/23 10:18:37;;;;;;;;;;;20.70;50.70;;;;;;495024;239;1055;-47
2021/10/23 10:20:38;;;;;;;;;;;20.70;50.60;;;;;;494835;239;1679;-47
2021/10/23 10:22:39;;;;;;;;;;;20.70;50.70;;;;;;494690;239;1633;-47
2021/10/23 10:24:41;;;;;;;;;;;20.70;50.70;;;;;;495047;239;1296;-47
2021/10/23 10:26:42;;;;;;;;;;;20.70;50.70;;;;;;495156;239;1335;-47
2021/10/23 10:28:43;;;;;;;;;;;20.60;50.70;;;;;;494784;239;1093;-47
2021/10/23 10:30:47;;;;;;;;;;;20.70;50.60;;;;;;494818;239;1217;-47
2021/10/23 10:32:46;;;;;;;;;;;20.70;50.70;;;;;;495137;241;2168;-47
2021/10/23 10:34:53;;;;;;;;;;;20.70;50.70;;;;;;495284;239;2112;-47
2021/10/23 10:36:49;;;;;;;;;;;20.70;50.70;;;;;;494760;241;2172;-47
2021/10/23 10:39:05;;;;;;;;;;;20.70;50.70;;;;;;494823;239;1055;-47
2021/10/23 10:43:34;;;;;;;;;;;20.70;50.60;;;;;;494996;241;1200;-47
2021/10/23 10:45:36;;;;;;;;;;;20.70;50.60;;;;;;494946;239;977;-47
2021/10/23 10:47:36;;;;;;;;;;;20.70;50.60;;;;;;494744;239;1059;-47
2021/10/23 10:49:38;;;;;;;;;;;20.70;50.60;;;;;;494794;239;962;-47
2021/10/23 10:51:39;;;;;;;;;;;20.70;50.60;;;;;;495215;239;1145;-47
2021/10/23 10:53:41;;;;;;;;;;;20.70;50.60;;;;;;495054;239;2186;-47
2021/10/23 10:55:43;;;;;;;;;;;20.70;50.70;;;;;;494961;239;1179;-47
2021/10/23 10:57:43;;;;;;;;;;;20.70;50.60;;;;;;495130;239;1789;-47
2021/10/23 10:59:45;;;;;;;;;;;20.70;50.70;;;;;;494823;239;1268;-47
2021/10/23 11:01:46;;;;;;;;;;;20.70;50.70;;;;;;494787;239;1096;-47
2021/10/23 11:03:48;;;;;;;;;;;20.70;50.70;;;;;;494971;239;1019;-47
2021/10/23 11:05:49;;;;;;;;;;;20.70;50.60;;;;;;494894;239;1005;-47
2021/10/23 11:07:50;;;;;;;;;;;20.70;50.70;;;;;;494931;239;1348;-47
2021/10/23 11:09:52;;;;;;;;;;;20.70;50.60;;;;;;494934;239;1306;-47
2021/10/23 11:11:54;;;;;;;;;;;20.70;50.60;;;;;;495001;239;1220;-47
2021/10/23 11:13:54;;;;;;;;;;;20.70;50.50;;;;;;494926;241;2290;-47
2021/10/23 11:15:56;;;;;;;;;;;20.70;50.60;;;;;;494817;239;1041;-47
2021/10/23 11:17:57;;;;;;;;;;;20.70;50.60;;;;;;494814;239;1101;-47
2021/10/23 11:19:58;;;;;;;;;;;20.70;50.60;;;;;;494873;239;1069;-47
2021/10/23 11:21:59;;;;;;;;;;;20.60;50.60;;;;;;495255;239;1145;-47
2021/10/23 11:24:01;;;;;;;;;;;20.70;50.60;;;;;;495279;239;1211;-47
2021/10/23 11:26:02;;;;;;;;;;;20.60;50.60;;;;;;494752;239;1211;-47
2021/10/23 11:28:04;;;;;;;;;;;20.70;50.70;;;;;;494806;239;1241;-47
2021/10/23 11:30:05;;;;;;;;;;;20.60;50.70;;;;;;494791;239;1072;-47
2021/10/23 11:32:06;;;;;;;;;;;20.70;50.70;;;;;;494971;239;1333;-47
2021/10/23 11:34:08;;;;;;;;;;;20.70;50.70;;;;;;495278;239;2080;-47
2021/10/23 11:36:09;;;;;;;;;;;20.70;50.70;;;;;;495159;239;1232;-47
2021/10/23 11:38:10;;;;;;;;;;;20.70;50.70;;;;;;495238;239;1130;-47
2021/10/23 11:40:12;;;;;;;;;;;20.70;50.60;;;;;;495187;239;1336;-47
2021/10/23 11:42:13;;;;;;;;;;;20.70;50.70;;;;;;494768;239;1329;-46
2021/10/23 11:44:14;;;;;;;;;;;20.70;50.60;;;;;;495088;239;1096;-47
2021/10/23 11:46:16;;;;;;;;;;;20.70;50.70;;;;;;494731;239;1318;-47
2021/10/23 11:48:18;;;;;;;;;;;20.70;50.60;;;;;;495116;239;1061;-47
2021/10/23 11:50:20;;;;;;;;;;;20.70;50.60;;;;;;495255;239;1311;-47
2021/10/23 11:52:21;;;;;;;;;;;20.70;50.60;;;;;;494803;239;1132;-47
2021/10/23 11:54:22;;;;;;;;;;;20.70;50.60;;;;;;494821;239;2115;-47
2021/10/23 11:56:24;;;;;;;;;;;20.70;50.60;;;;;;494920;239;1251;-47
2021/10/23 11:58:25;;;;;;;;;;;20.70;50.60;;;;;;494765;239;1118;-46
2021/10/23 12:00:26;;;;;;;;;;;20.70;50.60;;;;;;494763;239;1273;-47